sensor_id;sensor_type;location;lat;lon;timestamp;P1;durP1;ratioP1;P2;durP2;ratioP2
6203;SDS011;3135;42.602;23.468;2023-06-22T00:02:04;7.60;;;6.20;;
6203;SDS011;3135;42.602;23.468;2023-06-22T00:04:30;8.90;;;6.47;;
6203;SDS011;3135;42.602;23.468;2023-06-22T00:06:55;8.37;;;6.17;;
6203;SDS011;3135;42.602;23.468;2023-06-22T00:09:21;10.80;;;6.80;;
6203;SDS011;3135;42.602;23.468;2023-06-22T00:11:46;10.17;;;6.53;;
6203;SDS011;3135;42.602;23.468;2023-06-22T00:14:11;8.73;;;6.47;;
6203;SDS011;3135;42.602;23.468;2023-06-22T00:16:37;8.37;;;6.43;;
6203;SDS011;3135;42.602;23.468;2023-06-22T00:19:02;7.80;;;6.60;;
6203;SDS011;3135;42.602;23.468;2023-06-22T00:21:28;10.68;;;5.97;;
6203;SDS011;3135;42.602;23.468;2023-06-22T00:23:54;7.68;;;5.90;;
6203;SDS011;3135;42.602;23.468;2023-06-22T00:26:20;8.23;;;6.30;;
6203;SDS011;3135;42.602;23.468;2023-06-22T00:28:46;8.90;;;6.10;;
6203;SDS011;3135;42.602;23.468;2023-06-22T00:31:12;8.70;;;6.20;;
6203;SDS011;3135;42.602;23.468;2023-06-22T00:33:37;8.43;;;5.70;;
6203;SDS011;3135;42.602;23.468;2023-06-22T00:36:03;6.90;;;5.73;;
6203;SDS011;3135;42.602;23.468;2023-06-22T00:38:29;8.00;;;5.65;;
6203;SDS011;3135;42.602;23.468;2023-06-22T00:40:54;7.27;;;5.30;;
6203;SDS011;3135;42.602;23.468;2023-06-22T00:43:20;5.80;;;5.10;;
6203;SDS011;3135;42.602;23.468;2023-06-22T00:45:45;7.95;;;5.80;;
6203;SDS011;3135;42.602;23.468;2023-06-22T00:48:11;7.10;;;5.40;;
6203;SDS011;3135;42.602;23.468;2023-06-22T00:50:38;6.30;;;5.43;;
6203;SDS011;3135;42.602;23.468;2023-06-22T00:53:06;6.18;;;5.50;;
6203;SDS011;3135;42.602;23.468;2023-06-22T00:55:37;7.25;;;5.10;;
6203;SDS011;3135;42.602;23.468;2023-06-22T00:58:08;5.82;;;5.22;;
6203;SDS011;3135;42.602;23.468;2023-06-22T01:00:35;7.13;;;5.38;;
6203;SDS011;3135;42.602;23.468;2023-06-22T01:03:02;7.40;;;5.65;;
6203;SDS011;3135;42.602;23.468;2023-06-22T01:05:29;6.80;;;5.30;;
6203;SDS011;3135;42.602;23.468;2023-06-22T01:10:27;7.95;;;5.25;;
6203;SDS011;3135;42.602;23.468;2023-06-22T01:12:58;7.00;;;5.40;;
6203;SDS011;3135;42.602;23.468;2023-06-22T01:18:03;6.72;;;5.55;;
6203;SDS011;3135;42.602;23.468;2023-06-22T01:20:30;6.43;;;4.93;;
6203;SDS011;3135;42.602;23.468;2023-06-22T01:23:02;6.25;;;5.00;;
6203;SDS011;3135;42.602;23.468;2023-06-22T01:31:12;8.90;;;6.00;;
6203;SDS011;3135;42.602;23.468;2023-06-22T01:33:41;8.70;;;5.57;;
6203;SDS011;3135;42.602;23.468;2023-06-22T01:36:10;7.57;;;6.07;;
6203;SDS011;3135;42.602;23.468;2023-06-22T01:38:37;6.32;;;5.50;;
6203;SDS011;3135;42.602;23.468;2023-06-22T01:41:03;7.07;;;5.80;;
6203;SDS011;3135;42.602;23.468;2023-06-22T01:43:29;9.77;;;5.80;;
6203;SDS011;3135;42.602;23.468;2023-06-22T01:45:55;9.27;;;5.90;;
6203;SDS011;3135;42.602;23.468;2023-06-22T01:48:22;8.30;;;6.38;;
6203;SDS011;3135;42.602;23.468;2023-06-22T01:50:49;9.40;;;5.63;;
6203;SDS011;3135;42.602;23.468;2023-06-22T01:53:14;6.50;;;5.50;;
6203;SDS011;3135;42.602;23.468;2023-06-22T01:55:40;7.77;;;5.27;;
6203;SDS011;3135;42.602;23.468;2023-06-22T01:58:05;7.90;;;5.70;;
6203;SDS011;3135;42.602;23.468;2023-06-22T02:00:36;6.25;;;4.90;;
6203;SDS011;3135;42.602;23.468;2023-06-22T02:03:13;6.10;;;5.37;;
6203;SDS011;3135;42.602;23.468;2023-06-22T02:05:51;7.28;;;5.97;;
6203;SDS011;3135;42.602;23.468;2023-06-22T02:08:21;8.18;;;6.10;;
6203;SDS011;3135;42.602;23.468;2023-06-22T02:10:50;7.97;;;5.57;;
6203;SDS011;3135;42.602;23.468;2023-06-22T02:13:18;8.50;;;5.50;;
6203;SDS011;3135;42.602;23.468;2023-06-22T02:15:44;8.07;;;5.45;;
6203;SDS011;3135;42.602;23.468;2023-06-22T02:18:11;9.07;;;5.82;;
6203;SDS011;3135;42.602;23.468;2023-06-22T02:20:37;6.28;;;5.40;;
6203;SDS011;3135;42.602;23.468;2023-06-22T02:23:03;8.48;;;5.38;;
6203;SDS011;3135;42.602;23.468;2023-06-22T02:25:31;7.25;;;5.20;;
6203;SDS011;3135;42.602;23.468;2023-06-22T02:27:56;7.47;;;5.80;;
6203;SDS011;3135;42.602;23.468;2023-06-22T02:30:22;6.03;;;5.30;;
6203;SDS011;3135;42.602;23.468;2023-06-22T02:32:47;7.57;;;5.33;;
6203;SDS011;3135;42.602;23.468;2023-06-22T02:35:13;8.03;;;6.27;;
6203;SDS011;3135;42.602;23.468;2023-06-22T02:37:38;6.03;;;5.13;;
6203;SDS011;3135;42.602;23.468;2023-06-22T02:40:09;7.30;;;5.57;;
6203;SDS011;3135;42.602;23.468;2023-06-22T02:42:35;8.02;;;5.65;;
6203;SDS011;3135;42.602;23.468;2023-06-22T02:45:04;7.55;;;5.78;;
6203;SDS011;3135;42.602;23.468;2023-06-22T02:47:30;7.80;;;5.40;;
6203;SDS011;3135;42.602;23.468;2023-06-22T02:49:55;8.67;;;5.67;;
6203;SDS011;3135;42.602;23.468;2023-06-22T02:52:21;7.03;;;5.33;;
6203;SDS011;3135;42.602;23.468;2023-06-22T02:54:46;6.57;;;5.45;;
6203;SDS011;3135;42.602;23.468;2023-06-22T02:57:12;5.87;;;5.17;;
6203;SDS011;3135;42.602;23.468;2023-06-22T02:59:39;6.60;;;5.53;;
6203;SDS011;3135;42.602;23.468;2023-06-22T03:02:07;6.18;;;5.25;;
6203;SDS011;3135;42.602;23.468;2023-06-22T03:04:34;9.65;;;6.10;;
6203;SDS011;3135;42.602;23.468;2023-06-22T03:06:59;7.55;;;5.80;;
6203;SDS011;3135;42.602;23.468;2023-06-22T03:09:26;7.60;;;5.85;;
6203;SDS011;3135;42.602;23.468;2023-06-22T03:11:55;8.00;;;5.93;;
6203;SDS011;3135;42.602;23.468;2023-06-22T03:14:20;7.17;;;6.23;;
6203;SDS011;3135;42.602;23.468;2023-06-22T03:16:46;8.87;;;6.07;;
6203;SDS011;3135;42.602;23.468;2023-06-22T03:19:11;7.90;;;6.57;;
6203;SDS011;3135;42.602;23.468;2023-06-22T03:21:37;7.93;;;6.43;;
6203;SDS011;3135;42.602;23.468;2023-06-22T03:24:04;9.55;;;6.68;;
6203;SDS011;3135;42.602;23.468;2023-06-22T03:26:30;8.30;;;6.13;;
6203;SDS011;3135;42.602;23.468;2023-06-22T03:28:55;8.40;;;6.20;;
6203;SDS011;3135;42.602;23.468;2023-06-22T03:31:21;7.43;;;5.70;;
6203;SDS011;3135;42.602;23.468;2023-06-22T03:33:48;7.75;;;5.68;;
6203;SDS011;3135;42.602;23.468;2023-06-22T03:36:14;7.00;;;5.75;;
6203;SDS011;3135;42.602;23.468;2023-06-22T03:38:44;8.13;;;6.15;;
6203;SDS011;3135;42.602;23.468;2023-06-22T03:41:10;7.03;;;5.15;;
6203;SDS011;3135;42.602;23.468;2023-06-22T03:43:35;7.33;;;5.93;;
6203;SDS011;3135;42.602;23.468;2023-06-22T03:46:01;7.27;;;5.90;;
6203;SDS011;3135;42.602;23.468;2023-06-22T03:48:26;7.60;;;5.97;;
6203;SDS011;3135;42.602;23.468;2023-06-22T03:50:51;8.93;;;6.30;;
6203;SDS011;3135;42.602;23.468;2023-06-22T03:53:17;10.93;;;7.00;;
6203;SDS011;3135;42.602;23.468;2023-06-22T03:55:50;11.10;;;7.53;;
6203;SDS011;3135;42.602;23.468;2023-06-22T03:58:17;14.10;;;8.95;;
6203;SDS011;3135;42.602;23.468;2023-06-22T04:00:44;12.40;;;8.63;;
6203;SDS011;3135;42.602;23.468;2023-06-22T04:03:13;13.38;;;8.95;;
6203;SDS011;3135;42.602;23.468;2023-06-22T04:05:39;13.30;;;9.10;;
6203;SDS011;3135;42.602;23.468;2023-06-22T04:08:05;14.70;;;9.93;;
6203;SDS011;3135;42.602;23.468;2023-06-22T04:10:31;15.10;;;9.50;;
6203;SDS011;3135;42.602;23.468;2023-06-22T04:12:57;12.63;;;9.13;;
6203;SDS011;3135;42.602;23.468;2023-06-22T04:15:22;15.17;;;9.43;;
6203;SDS011;3135;42.602;23.468;2023-06-22T04:17:48;12.30;;;8.57;;
6203;SDS011;3135;42.602;23.468;2023-06-22T04:20:13;14.80;;;9.30;;
6203;SDS011;3135;42.602;23.468;2023-06-22T04:22:39;12.40;;;8.60;;
6203;SDS011;3135;42.602;23.468;2023-06-22T04:25:05;14.13;;;9.03;;
6203;SDS011;3135;42.602;23.468;2023-06-22T04:27:32;12.32;;;8.98;;
6203;SDS011;3135;42.602;23.468;2023-06-22T04:30:05;13.13;;;9.38;;
6203;SDS011;3135;42.602;23.468;2023-06-22T04:32:31;18.38;;;9.85;;
6203;SDS011;3135;42.602;23.468;2023-06-22T04:34:57;16.33;;;9.80;;
6203;SDS011;3135;42.602;23.468;2023-06-22T04:37:22;14.35;;;9.00;;
6203;SDS011;3135;42.602;23.468;2023-06-22T04:39:48;16.73;;;9.90;;
6203;SDS011;3135;42.602;23.468;2023-06-22T04:42:14;15.00;;;10.07;;
6203;SDS011;3135;42.602;23.468;2023-06-22T04:44:39;13.87;;;10.00;;
6203;SDS011;3135;42.602;23.468;2023-06-22T04:47:06;13.53;;;9.40;;
6203;SDS011;3135;42.602;23.468;2023-06-22T04:49:33;15.77;;;10.20;;
6203;SDS011;3135;42.602;23.468;2023-06-22T04:52:03;16.27;;;9.77;;
6203;SDS011;3135;42.602;23.468;2023-06-22T04:54:30;16.85;;;10.13;;
6203;SDS011;3135;42.602;23.468;2023-06-22T04:57:02;16.08;;;9.85;;
6203;SDS011;3135;42.602;23.468;2023-06-22T04:59:29;13.90;;;9.85;;
6203;SDS011;3135;42.602;23.468;2023-06-22T05:04:22;14.75;;;10.45;;
6203;SDS011;3135;42.602;23.468;2023-06-22T05:06:51;17.23;;;10.20;;
6203;SDS011;3135;42.602;23.468;2023-06-22T05:09:17;19.08;;;10.50;;
6203;SDS011;3135;42.602;23.468;2023-06-22T05:11:43;15.70;;;10.50;;
6203;SDS011;3135;42.602;23.468;2023-06-22T05:14:09;15.73;;;10.13;;
6203;SDS011;3135;42.602;23.468;2023-06-22T05:16:34;18.27;;;9.97;;
6203;SDS011;3135;42.602;23.468;2023-06-22T05:19:00;16.95;;;9.90;;
6203;SDS011;3135;42.602;23.468;2023-06-22T05:21:28;15.15;;;10.40;;
6203;SDS011;3135;42.602;23.468;2023-06-22T05:23:53;15.25;;;10.85;;
6203;SDS011;3135;42.602;23.468;2023-06-22T05:26:20;15.35;;;10.25;;
6203;SDS011;3135;42.602;23.468;2023-06-22T05:28:46;15.68;;;10.18;;
6203;SDS011;3135;42.602;23.468;2023-06-22T05:31:16;15.87;;;10.37;;
6203;SDS011;3135;42.602;23.468;2023-06-22T05:33:42;16.00;;;9.80;;
6203;SDS011;3135;42.602;23.468;2023-06-22T05:36:08;13.55;;;10.02;;
6203;SDS011;3135;42.602;23.468;2023-06-22T05:38:35;17.98;;;10.02;;
6203;SDS011;3135;42.602;23.468;2023-06-22T05:41:00;15.37;;;9.37;;
6203;SDS011;3135;42.602;23.468;2023-06-22T05:43:26;13.87;;;10.30;;
6203;SDS011;3135;42.602;23.468;2023-06-22T05:45:51;14.15;;;9.57;;
6203;SDS011;3135;42.602;23.468;2023-06-22T05:48:17;15.03;;;9.57;;
6203;SDS011;3135;42.602;23.468;2023-06-22T05:50:42;15.13;;;10.17;;
6203;SDS011;3135;42.602;23.468;2023-06-22T05:53:08;15.57;;;10.05;;
6203;SDS011;3135;42.602;23.468;2023-06-22T05:55:33;15.90;;;8.67;;
6203;SDS011;3135;42.602;23.468;2023-06-22T05:57:59;13.90;;;9.97;;
6203;SDS011;3135;42.602;23.468;2023-06-22T06:00:24;15.27;;;10.13;;
6203;SDS011;3135;42.602;23.468;2023-06-22T06:02:50;15.40;;;11.03;;
6203;SDS011;3135;42.602;23.468;2023-06-22T06:05:16;16.60;;;10.90;;
6203;SDS011;3135;42.602;23.468;2023-06-22T06:07:41;13.27;;;10.33;;
6203;SDS011;3135;42.602;23.468;2023-06-22T06:10:07;15.63;;;10.05;;
6203;SDS011;3135;42.602;23.468;2023-06-22T06:12:33;18.08;;;10.07;;
6203;SDS011;3135;42.602;23.468;2023-06-22T06:14:59;13.97;;;10.30;;
6203;SDS011;3135;42.602;23.468;2023-06-22T06:17:24;13.73;;;9.80;;
6203;SDS011;3135;42.602;23.468;2023-06-22T06:19:49;13.93;;;10.00;;
6203;SDS011;3135;42.602;23.468;2023-06-22T06:22:15;15.80;;;10.37;;
6203;SDS011;3135;42.602;23.468;2023-06-22T06:24:40;16.40;;;10.60;;
6203;SDS011;3135;42.602;23.468;2023-06-22T06:27:06;13.60;;;9.70;;
6203;SDS011;3135;42.602;23.468;2023-06-22T06:29:31;13.67;;;9.83;;
6203;SDS011;3135;42.602;23.468;2023-06-22T06:31:57;15.95;;;10.15;;
6203;SDS011;3135;42.602;23.468;2023-06-22T06:34:22;15.63;;;10.35;;
6203;SDS011;3135;42.602;23.468;2023-06-22T06:36:48;15.60;;;10.53;;
6203;SDS011;3135;42.602;23.468;2023-06-22T06:39:13;11.32;;;8.80;;
6203;SDS011;3135;42.602;23.468;2023-06-22T06:41:39;15.82;;;10.30;;
6203;SDS011;3135;42.602;23.468;2023-06-22T06:44:04;14.90;;;9.73;;
6203;SDS011;3135;42.602;23.468;2023-06-22T06:46:30;13.80;;;9.90;;
6203;SDS011;3135;42.602;23.468;2023-06-22T06:48:55;13.43;;;10.07;;
6203;SDS011;3135;42.602;23.468;2023-06-22T06:51:21;14.88;;;9.93;;
6203;SDS011;3135;42.602;23.468;2023-06-22T06:53:46;15.03;;;10.03;;
6203;SDS011;3135;42.602;23.468;2023-06-22T06:56:11;20.80;;;10.13;;
6203;SDS011;3135;42.602;23.468;2023-06-22T06:58:38;12.80;;;9.40;;
6203;SDS011;3135;42.602;23.468;2023-06-22T07:01:06;10.32;;;8.40;;
6203;SDS011;3135;42.602;23.468;2023-06-22T07:03:32;10.17;;;8.10;;
6203;SDS011;3135;42.602;23.468;2023-06-22T07:05:58;10.15;;;8.70;;
6203;SDS011;3135;42.602;23.468;2023-06-22T07:08:24;9.90;;;8.23;;
6203;SDS011;3135;42.602;23.468;2023-06-22T07:10:49;10.30;;;7.93;;
6203;SDS011;3135;42.602;23.468;2023-06-22T07:13:14;10.57;;;8.33;;
6203;SDS011;3135;42.602;23.468;2023-06-22T07:15:40;11.40;;;8.00;;
6203;SDS011;3135;42.602;23.468;2023-06-22T07:18:05;10.13;;;7.80;;
6203;SDS011;3135;42.602;23.468;2023-06-22T07:20:31;14.13;;;8.27;;
6203;SDS011;3135;42.602;23.468;2023-06-22T07:22:56;10.57;;;7.87;;
6203;SDS011;3135;42.602;23.468;2023-06-22T07:25:23;10.45;;;7.40;;
6203;SDS011;3135;42.602;23.468;2023-06-22T07:28:01;10.23;;;8.00;;
6203;SDS011;3135;42.602;23.468;2023-06-22T07:30:32;10.07;;;7.30;;
6203;SDS011;3135;42.602;23.468;2023-06-22T07:32:59;13.38;;;7.38;;
6203;SDS011;3135;42.602;23.468;2023-06-22T07:35:32;9.07;;;7.05;;
6203;SDS011;3135;42.602;23.468;2023-06-22T07:37:57;10.82;;;7.20;;
6203;SDS011;3135;42.602;23.468;2023-06-22T07:40:22;15.67;;;7.23;;
6203;SDS011;3135;42.602;23.468;2023-06-22T07:42:48;9.30;;;6.43;;
6203;SDS011;3135;42.602;23.468;2023-06-22T07:45:16;9.57;;;6.40;;
6203;SDS011;3135;42.602;23.468;2023-06-22T07:47:42;13.90;;;6.63;;
6203;SDS011;3135;42.602;23.468;2023-06-22T07:50:07;9.47;;;6.97;;
6203;SDS011;3135;42.602;23.468;2023-06-22T07:52:33;7.70;;;6.90;;
6203;SDS011;3135;42.602;23.468;2023-06-22T07:54:59;8.73;;;7.17;;
6203;SDS011;3135;42.602;23.468;2023-06-22T07:57:24;10.60;;;7.40;;
6203;SDS011;3135;42.602;23.468;2023-06-22T07:59:58;9.43;;;7.57;;
6203;SDS011;3135;42.602;23.468;2023-06-22T08:02:29;9.93;;;7.30;;
6203;SDS011;3135;42.602;23.468;2023-06-22T08:04:54;8.90;;;7.10;;
6203;SDS011;3135;42.602;23.468;2023-06-22T08:07:20;7.80;;;6.70;;
6203;SDS011;3135;42.602;23.468;2023-06-22T08:09:46;9.20;;;7.30;;
6203;SDS011;3135;42.602;23.468;2023-06-22T08:12:13;8.52;;;7.40;;
6203;SDS011;3135;42.602;23.468;2023-06-22T08:14:39;8.95;;;6.93;;
6203;SDS011;3135;42.602;23.468;2023-06-22T08:17:05;9.20;;;6.93;;
6203;SDS011;3135;42.602;23.468;2023-06-22T08:19:30;9.03;;;6.07;;
6203;SDS011;3135;42.602;23.468;2023-06-22T08:21:56;7.50;;;6.15;;
6203;SDS011;3135;42.602;23.468;2023-06-22T08:24:22;10.70;;;6.60;;
6203;SDS011;3135;42.602;23.468;2023-06-22T08:26:47;7.90;;;7.10;;
6203;SDS011;3135;42.602;23.468;2023-06-22T08:29:13;9.17;;;7.57;;
6203;SDS011;3135;42.602;23.468;2023-06-22T08:31:39;10.45;;;7.65;;
6203;SDS011;3135;42.602;23.468;2023-06-22T08:34:04;17.35;;;7.78;;
6203;SDS011;3135;42.602;23.468;2023-06-22T08:36:29;7.63;;;6.60;;
6203;SDS011;3135;42.602;23.468;2023-06-22T08:39:00;9.05;;;7.28;;
6203;SDS011;3135;42.602;23.468;2023-06-22T08:41:27;10.18;;;6.85;;
6203;SDS011;3135;42.602;23.468;2023-06-22T08:43:53;12.40;;;7.17;;
6203;SDS011;3135;42.602;23.468;2023-06-22T08:46:19;6.90;;;6.15;;
6203;SDS011;3135;42.602;23.468;2023-06-22T08:48:48;10.43;;;6.80;;
6203;SDS011;3135;42.602;23.468;2023-06-22T08:51:14;11.43;;;7.55;;
6203;SDS011;3135;42.602;23.468;2023-06-22T08:53:39;10.43;;;7.67;;
6203;SDS011;3135;42.602;23.468;2023-06-22T08:56:05;7.97;;;7.17;;
6203;SDS011;3135;42.602;23.468;2023-06-22T08:58:30;11.47;;;7.60;;
6203;SDS011;3135;42.602;23.468;2023-06-22T09:00:55;10.53;;;7.13;;
6203;SDS011;3135;42.602;23.468;2023-06-22T09:03:21;7.97;;;7.03;;
6203;SDS011;3135;42.602;23.468;2023-06-22T09:05:46;8.90;;;6.03;;
6203;SDS011;3135;42.602;23.468;2023-06-22T09:08:12;8.73;;;7.32;;
6203;SDS011;3135;42.602;23.468;2023-06-22T09:10:37;9.70;;;7.30;;
6203;SDS011;3135;42.602;23.468;2023-06-22T09:13:03;8.27;;;7.37;;
6203;SDS011;3135;42.602;23.468;2023-06-22T09:15:28;8.88;;;6.75;;
6203;SDS011;3135;42.602;23.468;2023-06-22T09:17:54;7.47;;;6.63;;
6203;SDS011;3135;42.602;23.468;2023-06-22T09:20:19;9.68;;;6.97;;
6203;SDS011;3135;42.602;23.468;2023-06-22T09:22:45;9.20;;;7.53;;
6203;SDS011;3135;42.602;23.468;2023-06-22T09:25:11;8.07;;;7.27;;
6203;SDS011;3135;42.602;23.468;2023-06-22T09:27:36;8.95;;;7.18;;
6203;SDS011;3135;42.602;23.468;2023-06-22T09:30:02;10.47;;;7.10;;
6203;SDS011;3135;42.602;23.468;2023-06-22T09:32:28;8.15;;;6.68;;
6203;SDS011;3135;42.602;23.468;2023-06-22T09:34:54;7.07;;;6.40;;
6203;SDS011;3135;42.602;23.468;2023-06-22T09:37:19;11.13;;;6.90;;
6203;SDS011;3135;42.602;23.468;2023-06-22T09:39:45;8.98;;;7.25;;
6203;SDS011;3135;42.602;23.468;2023-06-22T09:42:10;11.00;;;7.30;;
6203;SDS011;3135;42.602;23.468;2023-06-22T09:44:36;10.27;;;7.03;;
6203;SDS011;3135;42.602;23.468;2023-06-22T09:47:02;10.57;;;7.50;;
6203;SDS011;3135;42.602;23.468;2023-06-22T09:49:27;7.80;;;7.00;;
6203;SDS011;3135;42.602;23.468;2023-06-22T09:51:53;7.63;;;6.63;;
6203;SDS011;3135;42.602;23.468;2023-06-22T09:54:18;8.20;;;7.03;;
6203;SDS011;3135;42.602;23.468;2023-06-22T09:56:43;8.03;;;7.17;;
6203;SDS011;3135;42.602;23.468;2023-06-22T09:59:09;10.93;;;7.17;;
6203;SDS011;3135;42.602;23.468;2023-06-22T10:01:34;9.32;;;6.82;;
6203;SDS011;3135;42.602;23.468;2023-06-22T10:04:01;7.40;;;6.70;;
6203;SDS011;3135;42.602;23.468;2023-06-22T10:06:27;7.38;;;6.68;;
6203;SDS011;3135;42.602;23.468;2023-06-22T10:08:53;7.23;;;6.53;;
6203;SDS011;3135;42.602;23.468;2023-06-22T10:11:18;7.55;;;6.85;;
6203;SDS011;3135;42.602;23.468;2023-06-22T10:13:44;7.67;;;6.87;;
6203;SDS011;3135;42.602;23.468;2023-06-22T10:16:09;8.65;;;6.38;;
6203;SDS011;3135;42.602;23.468;2023-06-22T10:18:34;7.57;;;6.57;;
6203;SDS011;3135;42.602;23.468;2023-06-22T10:21:00;8.40;;;7.30;;
6203;SDS011;3135;42.602;23.468;2023-06-22T10:23:26;7.30;;;6.55;;
6203;SDS011;3135;42.602;23.468;2023-06-22T10:25:51;7.53;;;6.80;;
6203;SDS011;3135;42.602;23.468;2023-06-22T10:28:17;7.53;;;6.40;;
6203;SDS011;3135;42.602;23.468;2023-06-22T10:30:42;7.03;;;6.33;;
6203;SDS011;3135;42.602;23.468;2023-06-22T10:33:08;6.80;;;6.20;;
6203;SDS011;3135;42.602;23.468;2023-06-22T10:35:34;6.90;;;6.22;;
6203;SDS011;3135;42.602;23.468;2023-06-22T10:38:02;7.30;;;6.60;;
6203;SDS011;3135;42.602;23.468;2023-06-22T10:40:28;7.10;;;6.40;;
6203;SDS011;3135;42.602;23.468;2023-06-22T10:42:53;7.80;;;6.57;;
6203;SDS011;3135;42.602;23.468;2023-06-22T10:45:19;7.57;;;6.50;;
6203;SDS011;3135;42.602;23.468;2023-06-22T10:47:44;6.93;;;6.22;;
6203;SDS011;3135;42.602;23.468;2023-06-22T10:50:10;7.47;;;6.70;;
6203;SDS011;3135;42.602;23.468;2023-06-22T10:52:36;9.65;;;6.50;;
6203;SDS011;3135;42.602;23.468;2023-06-22T10:55:01;7.77;;;6.97;;
6203;SDS011;3135;42.602;23.468;2023-06-22T10:57:27;8.55;;;6.60;;
6203;SDS011;3135;42.602;23.468;2023-06-22T10:59:52;9.90;;;7.27;;
6203;SDS011;3135;42.602;23.468;2023-06-22T11:02:18;8.53;;;7.10;;
6203;SDS011;3135;42.602;23.468;2023-06-22T11:04:43;7.38;;;6.68;;
6203;SDS011;3135;42.602;23.468;2023-06-22T11:07:09;10.27;;;7.33;;
6203;SDS011;3135;42.602;23.468;2023-06-22T11:09:35;8.27;;;6.80;;
6203;SDS011;3135;42.602;23.468;2023-06-22T11:12:00;8.37;;;6.73;;
6203;SDS011;3135;42.602;23.468;2023-06-22T11:14:25;7.77;;;6.97;;
6203;SDS011;3135;42.602;23.468;2023-06-22T11:16:51;7.83;;;6.57;;
6203;SDS011;3135;42.602;23.468;2023-06-22T11:19:16;7.65;;;6.95;;
6203;SDS011;3135;42.602;23.468;2023-06-22T11:21:42;8.30;;;7.10;;
6203;SDS011;3135;42.602;23.468;2023-06-22T11:24:08;7.20;;;6.45;;
6203;SDS011;3135;42.602;23.468;2023-06-22T11:26:33;7.13;;;6.43;;
6203;SDS011;3135;42.602;23.468;2023-06-22T11:28:59;7.57;;;6.67;;
6203;SDS011;3135;42.602;23.468;2023-06-22T11:31:24;7.78;;;6.70;;
6203;SDS011;3135;42.602;23.468;2023-06-22T11:33:50;7.20;;;6.50;;
6203;SDS011;3135;42.602;23.468;2023-06-22T11:36:16;7.22;;;6.53;;
6203;SDS011;3135;42.602;23.468;2023-06-22T11:38:41;7.90;;;6.90;;
6203;SDS011;3135;42.602;23.468;2023-06-22T11:41:08;9.20;;;7.10;;
6203;SDS011;3135;42.602;23.468;2023-06-22T11:43:34;7.00;;;6.37;;
6203;SDS011;3135;42.602;23.468;2023-06-22T11:46:01;7.45;;;6.75;;
6203;SDS011;3135;42.602;23.468;2023-06-22T11:48:28;9.63;;;6.93;;
6203;SDS011;3135;42.602;23.468;2023-06-22T11:50:53;8.10;;;7.27;;
6203;SDS011;3135;42.602;23.468;2023-06-22T11:53:20;8.77;;;7.28;;
6203;SDS011;3135;42.602;23.468;2023-06-22T11:55:49;7.15;;;6.45;;
6203;SDS011;3135;42.602;23.468;2023-06-22T11:58:15;7.50;;;6.50;;
6203;SDS011;3135;42.602;23.468;2023-06-22T12:00:41;7.90;;;7.10;;
6203;SDS011;3135;42.602;23.468;2023-06-22T12:03:07;7.50;;;6.70;;
6203;SDS011;3135;42.602;23.468;2023-06-22T12:05:32;10.70;;;7.40;;
6203;SDS011;3135;42.602;23.468;2023-06-22T12:07:58;7.95;;;7.20;;
6203;SDS011;3135;42.602;23.468;2023-06-22T12:10:25;10.20;;;7.90;;
6203;SDS011;3135;42.602;23.468;2023-06-22T12:12:51;14.25;;;8.05;;
6203;SDS011;3135;42.602;23.468;2023-06-22T12:15:16;11.68;;;8.30;;
6203;SDS011;3135;42.602;23.468;2023-06-22T12:17:42;14.47;;;7.93;;
6203;SDS011;3135;42.602;23.468;2023-06-22T12:20:07;10.43;;;7.70;;
6203;SDS011;3135;42.602;23.468;2023-06-22T12:22:34;14.18;;;8.32;;
6203;SDS011;3135;42.602;23.468;2023-06-22T12:25:00;12.83;;;8.07;;
6203;SDS011;3135;42.602;23.468;2023-06-22T12:27:26;13.73;;;7.95;;
6203;SDS011;3135;42.602;23.468;2023-06-22T12:29:52;11.70;;;7.40;;
6203;SDS011;3135;42.602;23.468;2023-06-22T12:32:17;9.52;;;7.28;;
6203;SDS011;3135;42.602;23.468;2023-06-22T12:34:43;14.93;;;8.60;;
6203;SDS011;3135;42.602;23.468;2023-06-22T12:37:09;10.90;;;7.40;;
6203;SDS011;3135;42.602;23.468;2023-06-22T12:39:35;11.53;;;7.80;;
6203;SDS011;3135;42.602;23.468;2023-06-22T12:42:00;10.87;;;6.50;;
6203;SDS011;3135;42.602;23.468;2023-06-22T12:44:26;13.13;;;8.07;;
6203;SDS011;3135;42.602;23.468;2023-06-22T12:46:51;7.75;;;5.80;;
6203;SDS011;3135;42.602;23.468;2023-06-22T12:49:17;8.27;;;5.67;;
6203;SDS011;3135;42.602;23.468;2023-06-22T12:51:43;6.47;;;5.03;;
6203;SDS011;3135;42.602;23.468;2023-06-22T12:54:09;6.65;;;5.25;;
6203;SDS011;3135;42.602;23.468;2023-06-22T12:56:36;11.00;;;5.40;;
6203;SDS011;3135;42.602;23.468;2023-06-22T12:59:03;10.10;;;5.30;;
6203;SDS011;3135;42.602;23.468;2023-06-22T13:01:29;9.02;;;5.13;;
6203;SDS011;3135;42.602;23.468;2023-06-22T13:03:58;9.10;;;6.10;;
6203;SDS011;3135;42.602;23.468;2023-06-22T13:06:24;10.50;;;6.90;;
6203;SDS011;3135;42.602;23.468;2023-06-22T13:08:50;9.65;;;6.90;;
6203;SDS011;3135;42.602;23.468;2023-06-22T13:11:15;9.03;;;7.10;;
6203;SDS011;3135;42.602;23.468;2023-06-22T13:13:41;11.27;;;6.80;;
6203;SDS011;3135;42.602;23.468;2023-06-22T13:16:06;11.05;;;7.25;;
6203;SDS011;3135;42.602;23.468;2023-06-22T13:18:32;11.38;;;7.40;;
6203;SDS011;3135;42.602;23.468;2023-06-22T13:21:00;10.52;;;7.55;;
6203;SDS011;3135;42.602;23.468;2023-06-22T13:23:26;9.60;;;7.53;;
6203;SDS011;3135;42.602;23.468;2023-06-22T13:25:51;10.30;;;7.20;;
6203;SDS011;3135;42.602;23.468;2023-06-22T13:28:18;9.60;;;6.90;;
6203;SDS011;3135;42.602;23.468;2023-06-22T13:30:43;9.95;;;6.78;;
6203;SDS011;3135;42.602;23.468;2023-06-22T13:33:12;10.07;;;6.30;;
6203;SDS011;3135;42.602;23.468;2023-06-22T13:35:38;9.37;;;6.90;;
6203;SDS011;3135;42.602;23.468;2023-06-22T13:38:03;9.47;;;6.83;;
6203;SDS011;3135;42.602;23.468;2023-06-22T13:40:29;8.35;;;6.50;;
6203;SDS011;3135;42.602;23.468;2023-06-22T13:42:55;14.10;;;7.80;;
6203;SDS011;3135;42.602;23.468;2023-06-22T13:45:20;13.80;;;7.73;;
6203;SDS011;3135;42.602;23.468;2023-06-22T13:47:46;11.23;;;7.30;;
6203;SDS011;3135;42.602;23.468;2023-06-22T13:50:12;15.55;;;8.07;;
6203;SDS011;3135;42.602;23.468;2023-06-22T13:52:40;12.77;;;7.38;;
6203;SDS011;3135;42.602;23.468;2023-06-22T13:55:05;11.63;;;7.65;;
6203;SDS011;3135;42.602;23.468;2023-06-22T13:57:32;10.57;;;7.55;;
6203;SDS011;3135;42.602;23.468;2023-06-22T13:59:58;9.68;;;7.50;;
6203;SDS011;3135;42.602;23.468;2023-06-22T14:02:25;10.90;;;7.72;;
6203;SDS011;3135;42.602;23.468;2023-06-22T14:04:51;10.25;;;7.63;;
6203;SDS011;3135;42.602;23.468;2023-06-22T14:07:16;11.50;;;7.60;;
6203;SDS011;3135;42.602;23.468;2023-06-22T14:09:44;10.90;;;7.65;;
6203;SDS011;3135;42.602;23.468;2023-06-22T14:12:10;11.77;;;7.85;;
6203;SDS011;3135;42.602;23.468;2023-06-22T14:14:35;10.52;;;7.78;;
6203;SDS011;3135;42.602;23.468;2023-06-22T14:17:01;10.13;;;7.73;;
6203;SDS011;3135;42.602;23.468;2023-06-22T14:19:26;12.15;;;7.90;;
6203;SDS011;3135;42.602;23.468;2023-06-22T14:21:52;13.25;;;8.23;;
6203;SDS011;3135;42.602;23.468;2023-06-22T14:24:17;10.60;;;7.73;;
6203;SDS011;3135;42.602;23.468;2023-06-22T14:26:43;12.63;;;8.23;;
6203;SDS011;3135;42.602;23.468;2023-06-22T14:29:08;10.50;;;7.50;;
6203;SDS011;3135;42.602;23.468;2023-06-22T14:31:34;13.73;;;7.88;;
6203;SDS011;3135;42.602;23.468;2023-06-22T14:33:59;11.40;;;7.67;;
6203;SDS011;3135;42.602;23.468;2023-06-22T14:36:25;13.43;;;7.80;;
6203;SDS011;3135;42.602;23.468;2023-06-22T14:38:51;10.17;;;7.27;;
6203;SDS011;3135;42.602;23.468;2023-06-22T14:41:16;11.43;;;7.70;;
6203;SDS011;3135;42.602;23.468;2023-06-22T14:43:45;11.07;;;7.85;;
6203;SDS011;3135;42.602;23.468;2023-06-22T14:46:12;12.35;;;8.02;;
6203;SDS011;3135;42.602;23.468;2023-06-22T14:48:38;11.60;;;8.50;;
6203;SDS011;3135;42.602;23.468;2023-06-22T14:51:04;12.85;;;8.60;;
6203;SDS011;3135;42.602;23.468;2023-06-22T14:53:30;13.57;;;8.80;;
6203;SDS011;3135;42.602;23.468;2023-06-22T14:55:55;11.53;;;8.03;;
6203;SDS011;3135;42.602;23.468;2023-06-22T14:58:21;11.77;;;7.97;;
6203;SDS011;3135;42.602;23.468;2023-06-22T15:00:46;11.73;;;7.97;;